Time;durP1;ratioP1;P1;durP2;ratioP2;P2;SDS_P1;SDS_P2;PMS_P1;PMS_P2;Temp;Humidity;BMP_temperature;BMP_pressure;BME280_temperature;BME280_humidity;BME280_pressure;Samples;Min_cycle;Max_cycle;Signal;HPM_P1;HPM_P2
2021/01/16 00:00:56;;;;;;;10.18;5.47;;;;;;;-8.47;63.87;98785.94;1693888;83;21171;-68
2021/01/16 00:03:23;;;;;;;10.85;6.05;;;;;;;-8.43;63.79;98778.10;1711376;82;21206;-68
2021/01/16 00:05:52;;;;;;;11.20;5.70;;;;;;;-8.43;63.52;98778.56;1755396;81;21188;-68
2021/01/16 00:08:22;;;;;;;12.18;7.12;;;;;;;-8.45;63.18;98779.06;1730611;83;21723;-68
2021/01/16 00:10:52;;;;;;;11.05;6.25;;;;;;;-8.48;63.43;98778.70;1703525;83;21613;-68
2021/01/16 00:13:25;;;;;;;13.53;6.80;;;;;;;-8.46;63.50;98782.50;1735634;81;21208;-68
2021/01/16 00:15:54;;;;;;;12.70;6.28;;;;;;;-8.44;63.63;98780.72;1704513;83;21317;-68
2021/01/16 00:18:24;;;;;;;13.43;6.95;;;;;;;-8.40;63.51;98784.39;1711266;82;21247;-68
2021/01/16 00:20:54;;;;;;;13.08;6.65;;;;;;;-8.37;63.61;98781.33;1748356;81;21612;-68
2021/01/16 00:23:24;;;;;;;13.90;7.78;;;;;;;-8.45;63.21;98785.02;1722716;83;21167;-68
2021/01/16 00:25:52;;;;;;;12.30;7.20;;;;;;;-8.54;63.52;98782.75;1719317;83;21333;-68
2021/01/16 00:28:23;;;;;;;16.52;8.83;;;;;;;-8.60;63.93;98781.69;1713486;82;21262;-68
2021/01/16 00:30:50;;;;;;;18.35;8.70;;;;;;;-8.58;64.48;98785.03;1741917;81;21825;-68
2021/01/16 00:33:21;;;;;;;18.27;8.08;;;;;;;-8.52;64.79;98784.82;1707443;82;21139;-68
2021/01/16 00:35:49;;;;;;;15.75;7.95;;;;;;;-8.43;65.02;98783.23;1711291;83;21192;-68
2021/01/16 00:38:17;;;;;;;17.35;9.05;;;;;;;-8.35;64.94;98785.96;1728959;83;21155;-68
2021/01/16 00:40:45;;;;;;;19.48;10.70;;;;;;;-8.29;65.04;98791.70;1706514;83;21135;-68
2021/01/16 00:43:16;;;;;;;25.45;12.13;;;;;;;-8.30;64.82;98795.17;1705674;82;21227;-68
2021/01/16 00:45:45;;;;;;;21.80;11.30;;;;;;;-8.35;65.05;98794.48;1722569;82;21190;-68
2021/01/16 00:48:18;;;;;;;19.52;9.90;;;;;;;-8.40;65.23;98794.66;1723981;82;21171;-69
2021/01/16 00:50:49;;;;;;;18.25;9.73;;;;;;;-8.46;65.14;98787.63;1723461;83;21333;-69
2021/01/16 00:53:18;;;;;;;16.42;7.90;;;;;;;-8.49;65.53;98778.73;1709110;81;21595;-69
2021/01/16 00:55:51;;;;;;;17.75;9.68;;;;;;;-8.57;65.41;98780.28;1742007;81;21155;-69
2021/01/16 00:58:20;;;;;;;15.13;8.05;;;;;;;-8.68;65.84;98779.80;1726492;81;21721;-69
2021/01/16 01:00:50;;;;;;;17.87;9.05;;;;;;;-8.74;65.71;98778.27;1727684;83;21175;-69
2021/01/16 01:03:22;;;;;;;17.60;8.70;;;;;;;-8.75;65.58;98786.86;1733368;81;21683;-69
2021/01/16 01:05:51;;;;;;;19.62;10.18;;;;;;;-8.79;65.57;98792.53;1741551;81;21215;-68
2021/01/16 01:08:30;;;;;;;17.25;8.70;;;;;;;-8.80;65.13;98790.01;1741425;81;21655;-69
2021/01/16 01:10:58;;;;;;;22.58;10.55;;;;;;;-8.88;65.09;98789.39;1737204;81;21757;-69
2021/01/16 01:13:26;;;;;;;19.35;9.65;;;;;;;-8.99;65.17;98789.76;1737343;81;21804;-69
2021/01/16 01:15:53;;;;;;;16.97;9.70;;;;;;;-9.02;64.90;98798.36;1723872;81;21596;-68
2021/01/16 01:18:22;;;;;;;18.23;9.10;;;;;;;-9.09;65.02;98806.28;1703959;83;21161;-69
2021/01/16 01:20:50;;;;;;;17.30;8.53;;;;;;;-9.17;64.78;98808.62;1760366;81;21584;-69
2021/01/16 01:23:17;;;;;;;17.52;8.90;;;;;;;-9.26;64.68;98807.62;1751492;81;21172;-69
2021/01/16 01:25:45;;;;;;;15.35;8.15;;;;;;;-9.34;64.55;98805.74;1732051;83;21146;-69
2021/01/16 01:28:13;;;;;;;21.70;9.18;;;;;;;-9.42;64.58;98801.30;1718574;82;21793;-69
2021/01/16 01:30:41;;;;;;;13.85;7.28;;;;;;;-9.46;64.82;98799.69;1743551;81;21156;-69
2021/01/16 01:33:15;;;;;;;12.98;7.03;;;;;;;-9.48;64.83;98797.20;1704180;83;21174;-69
2021/01/16 01:35:44;;;;;;;12.30;6.85;;;;;;;-9.59;64.14;98805.19;1707968;81;21160;-69
2021/01/16 01:38:18;;;;;;;12.55;7.28;;;;;;;-9.70;64.39;98802.54;1720696;81;21603;-69
2021/01/16 01:40:46;;;;;;;14.28;6.25;;;;;;;-9.71;64.59;98805.97;1733459;82;21139;-69
2021/01/16 01:43:15;;;;;;;15.23;6.83;;;;;;;-9.72;64.58;98802.99;1741427;81;21774;-68
2021/01/16 01:45:42;;;;;;;9.00;5.00;;;;;;;-9.71;64.51;98797.84;1721589;83;21191;-69
2021/01/16 01:48:13;;;;;;;13.03;6.50;;;;;;;-9.72;64.65;98798.73;1756747;81;21136;-70
2021/01/16 01:50:41;;;;;;;11.53;5.67;;;;;;;-9.67;64.67;98799.45;1724440;81;21552;-69
2021/01/16 01:53:08;;;;;;;12.15;6.20;;;;;;;-9.67;64.67;98799.45;1735600;81;21184;-69
2021/01/16 01:55:37;;;;;;;12.68;6.35;;;;;;;-9.63;64.12;98798.48;1730399;83;21183;-69
2021/01/16 01:58:07;;;;;;;12.65;5.87;;;;;;;-9.65;63.88;98804.09;1708977;82;21285;-68
2021/01/16 02:00:36;;;;;;;10.20;5.47;;;;;;;-9.66;63.84;98800.28;1752773;81;21624;-69
2021/01/16 02:03:04;;;;;;;10.38;5.92;;;;;;;-9.69;63.40;98801.64;1704226;83;21309;-69
2021/01/16 02:05:32;;;;;;;12.47;6.15;;;;;;;-9.74;63.26;98806.04;1761354;81;21144;-69
2021/01/16 02:08:00;;;;;;;11.40;5.80;;;;;;;-9.73;63.33;98812.85;1730456;82;21175;-69
2021/01/16 02:10:28;;;;;;;8.73;5.65;;;;;;;-9.72;63.21;98806.83;1761021;81;21164;-69
2021/01/16 02:12:56;;;;;;;10.03;5.25;;;;;;;-9.73;62.66;98812.41;1732405;83;21217;-69
2021/01/16 02:15:44;;;;;;;11.35;6.37;;;;;;;-9.74;62.60;98820.98;1688352;82;21126;-69
2021/01/16 02:18:30;;;;;;;9.60;5.17;;;;;;;-9.73;62.52;98822.64;1693696;83;21210;-69
2021/01/16 02:20:59;;;;;;;13.38;6.37;;;;;;;-9.73;62.52;98822.64;1744430;81;21539;-70
2021/01/16 02:23:33;;;;;;;11.70;5.40;;;;;;;-9.72;62.29;98828.59;1750715;81;21322;-69
2021/01/16 02:26:23;;;;;;;12.50;6.08;;;;;;;-9.72;62.02;98830.73;1733968;83;21206;-70
2021/01/16 02:29:00;;;;;;;10.82;5.37;;;;;;;-9.92;60.40;98827.87;1755753;81;21588;-70
2021/01/16 02:31:35;;;;;;;11.25;5.50;;;;;;;-9.92;60.40;98827.87;1704259;83;21316;-70
2021/01/16 02:34:02;;;;;;;12.13;6.08;;;;;;;-10.05;59.28;98836.31;1742059;81;21147;-70
2021/01/16 02:37:00;;;;;;;9.98;5.28;;;;;;;-10.20;58.30;98834.98;1737663;81;21155;-70
2021/01/16 02:39:45;;;;;;;10.48;5.78;;;;;;;-10.35;58.20;98838.36;1760413;81;21167;-70
2021/01/16 02:42:18;;;;;;;9.18;4.70;;;;;;;-10.59;57.82;98827.47;1733323;82;21192;-69
2021/01/16 02:45:09;;;;;;;11.33;4.90;;;;;;;-10.59;57.82;98827.47;1762677;81;21632;-69
2021/01/16 02:48:02;;;;;;;11.18;5.65;;;;;;;-10.68;57.63;98825.13;1725596;83;21175;-69
2021/01/16 02:50:30;;;;;;;8.93;4.45;;;;;;;-10.81;57.63;98827.99;1707434;82;21179;-70
2021/01/16 02:52:58;;;;;;;10.45;5.37;;;;;;;-10.92;57.91;98829.09;1727671;81;21172;-70
2021/01/16 02:55:26;;;;;;;9.75;4.65;;;;;;;-10.99;58.10;98832.24;1741826;81;21585;-70
2021/01/16 02:57:54;;;;;;;9.13;4.70;;;;;;;-11.04;58.18;98834.05;1699156;83;21166;-70
2021/01/16 03:00:22;;;;;;;12.50;5.67;;;;;;;-11.16;57.98;98833.90;1753905;81;21587;-70
2021/01/16 03:02:50;;;;;;;10.60;4.83;;;;;;;-11.28;58.10;98832.43;1755289;81;21180;-70
2021/01/16 03:05:18;;;;;;;12.00;5.10;;;;;;;-11.39;58.29;98837.78;1703257;83;21293;-70
2021/01/16 03:07:47;;;;;;;10.72;4.62;;;;;;;-11.46;58.62;98848.98;1729598;81;21132;-69
2021/01/16 03:10:16;;;;;;;11.33;5.15;;;;;;;-11.49;58.78;98838.00;1703377;83;21320;-70
2021/01/16 03:12:44;;;;;;;9.85;5.33;;;;;;;-11.47;58.74;98838.80;1745002;81;21333;-70
2021/01/16 03:15:15;;;;;;;10.68;4.72;;;;;;;-11.48;58.72;98834.56;1730830;82;21139;-70
2021/01/16 03:17:54;;;;;;;9.48;4.85;;;;;;;-11.52;58.59;98837.61;1738883;81;21163;-70
2021/01/16 03:20:25;;;;;;;9.53;4.72;;;;;;;-11.55;58.77;98852.56;1752661;81;21596;-70
2021/01/16 03:23:00;;;;;;;13.18;5.70;;;;;;;-11.61;58.82;98853.97;1754049;81;21148;-69
2021/01/16 03:25:30;;;;;;;10.88;5.20;;;;;;;-11.60;59.04;98850.53;1723237;83;21635;-69
2021/01/16 03:27:59;;;;;;;8.05;5.03;;;;;;;-11.63;58.99;98844.23;1754069;81;21196;-69
2021/01/16 03:30:27;;;;;;;8.65;4.62;;;;;;;-11.76;58.79;98853.83;1726761;83;21615;-70
2021/01/16 03:32:56;;;;;;;14.73;5.75;;;;;;;-11.84;59.18;98840.36;1761723;81;21168;-70
2021/01/16 03:35:25;;;;;;;9.35;5.00;;;;;;;-11.81;59.27;98852.23;1723484;82;21682;-70
2021/01/16 03:37:55;;;;;;;13.80;6.03;;;;;;;-11.82;59.32;98854.37;1751693;81;21207;-70
2021/01/16 03:40:23;;;;;;;10.75;5.12;;;;;;;-11.83;59.34;98848.88;1722090;83;21175;-69
2021/01/16 03:42:52;;;;;;;9.98;5.10;;;;;;;-11.88;59.48;98846.84;1725950;81;21147;-70
2021/01/16 03:45:22;;;;;;;10.72;4.97;;;;;;;-11.92;59.49;98849.47;1734859;83;21157;-69
2021/01/16 03:47:51;;;;;;;8.58;4.67;;;;;;;-11.93;59.67;98862.25;1750348;81;21238;-69
2021/01/16 03:50:20;;;;;;;12.50;5.35;;;;;;;-12.00;59.87;98853.05;1746438;81;21211;-70
2021/01/16 03:52:49;;;;;;;10.85;5.55;;;;;;;-12.09;59.90;98854.49;1702941;83;21146;-69
2021/01/16 03:55:16;;;;;;;9.53;4.92;;;;;;;-12.25;59.94;98859.00;1699285;82;21306;-69
2021/01/16 03:57:44;;;;;;;9.60;5.03;;;;;;;-12.44;60.28;98854.66;1699161;83;21183;-69
2021/01/16 04:00:13;;;;;;;9.98;5.50;;;;;;;-12.60;60.60;98856.63;1728189;81;21616;-70
2021/01/16 04:02:41;;;;;;;9.70;5.03;;;;;;;-12.67;60.85;98857.59;1754243;81;21176;-70
2021/01/16 04:05:12;;;;;;;11.63;5.33;;;;;;;-12.74;61.00;98864.47;1704600;83;21170;-70
2021/01/16 04:07:41;;;;;;;10.08;5.08;;;;;;;-12.87;60.89;98869.34;1753965;81;21184;-69
2021/01/16 04:10:10;;;;;;;10.90;5.92;;;;;;;-13.13;61.53;98871.41;1735439;83;21142;-70
2021/01/16 04:12:37;;;;;;;12.15;5.45;;;;;;;-13.27;61.96;98884.73;1716356;81;21175;-70
2021/01/16 04:15:08;;;;;;;9.70;5.12;;;;;;;-13.29;62.50;98884.75;1716837;81;21568;-70
2021/01/16 04:17:36;;;;;;;12.70;5.78;;;;;;;-13.24;62.81;98877.08;1761644;81;21176;-70
2021/01/16 04:20:05;;;;;;;10.13;4.50;;;;;;;-13.17;62.51;98886.72;1725960;83;21594;-70
2021/01/16 04:22:38;;;;;;;10.23;5.03;;;;;;;-13.21;61.75;98889.73;1763022;81;21215;-69
2021/01/16 04:25:07;;;;;;;7.60;4.03;;;;;;;-13.26;61.85;98887.67;1702517;83;21174;-70
2021/01/16 04:27:35;;;;;;;8.78;4.58;;;;;;;-13.29;61.64;98894.09;1757798;81;21176;-70
2021/01/16 04:30:05;;;;;;;10.05;4.87;;;;;;;-13.31;61.62;98901.77;1731111;82;21611;-69
2021/01/16 04:32:34;;;;;;;11.70;4.78;;;;;;;-13.33;61.57;98900.12;1745433;81;21223;-70
2021/01/16 04:35:05;;;;;;;10.30;4.90;;;;;;;-13.42;61.13;98900.23;1730665;83;21661;-70
2021/01/16 04:37:32;;;;;;;10.95;4.65;;;;;;;-13.56;60.96;98893.58;1728476;81;21132;-70
2021/01/16 04:40:01;;;;;;;12.37;5.47;;;;;;;-13.75;60.92;98893.39;1733268;83;21635;-70
2021/01/16 04:42:29;;;;;;;10.50;5.00;;;;;;;-13.92;61.46;98898.22;1730267;81;21220;-70
2021/01/16 04:44:56;;;;;;;9.40;5.30;;;;;;;-13.91;61.89;98891.02;1758836;81;21619;-69
2021/01/16 04:47:26;;;;;;;10.40;5.37;;;;;;;-13.89;61.94;98904.55;1703163;83;21567;-69
2021/01/16 04:49:56;;;;;;;11.03;5.50;;;;;;;-13.91;61.79;98902.45;1735661;81;21596;-69
2021/01/16 04:52:27;;;;;;;8.58;4.60;;;;;;;-13.93;61.70;98891.46;1674388;82;21209;-69
2021/01/16 04:54:55;;;;;;;7.83;4.37;;;;;;;-13.95;61.83;98903.34;1740417;81;21196;-69
2021/01/16 04:57:27;;;;;;;8.50;4.65;;;;;;;-13.96;61.79;98919.88;1735997;82;21190;-69
2021/01/16 04:59:56;;;;;;;9.78;4.72;;;;;;;-13.94;61.82;98927.89;1748028;81;21239;-70
2021/01/16 05:02:24;;;;;;;10.60;5.30;;;;;;;-13.92;61.72;98920.27;1718247;81;21592;-70
2021/01/16 05:04:52;;;;;;;9.15;4.87;;;;;;;-13.99;61.52;98918.63;1703171;82;21606;-71
2021/01/16 05:07:20;;;;;;;12.63;5.50;;;;;;;-14.07;61.67;98919.97;1691288;81;21179;-71
2021/01/16 05:09:47;;;;;;;12.50;5.33;;;;;;;-14.11;61.85;98929.76;1702248;83;21144;-70
2021/01/16 05:12:35;;;;;;;10.43;5.42;;;;;;;-14.13;61.94;98942.91;1722078;81;21168;-70
2021/01/16 05:15:08;;;;;;;12.03;5.30;;;;;;;-14.15;62.01;98938.27;1720863;83;21152;-71
2021/01/16 05:17:44;;;;;;;12.60;5.05;;;;;;;-14.18;62.15;98938.29;1762437;81;21330;-69
2021/01/16 05:20:12;;;;;;;7.35;4.40;;;;;;;-14.15;62.20;98939.55;1731828;83;21308;-70
2021/01/16 05:22:40;;;;;;;10.32;5.47;;;;;;;-14.17;62.01;98945.91;1733424;81;21166;-69
2021/01/16 05:25:10;;;;;;;9.13;4.78;;;;;;;-14.20;62.14;98942.55;1740300;81;21183;-70
2021/01/16 05:27:38;;;;;;;10.15;5.12;;;;;;;-14.28;62.21;98943.44;1721736;83;21139;-70
2021/01/16 05:30:11;;;;;;;9.45;5.08;;;;;;;-14.31;62.28;98943.89;1756698;81;21160;-69
2021/01/16 05:32:39;;;;;;;10.00;5.78;;;;;;;-14.31;62.51;98943.89;1701763;83;21583;-70
2021/01/16 05:35:18;;;;;;;7.75;4.75;;;;;;;-14.28;62.87;98954.04;1762174;81;21175;-69
2021/01/16 05:37:48;;;;;;;12.33;5.15;;;;;;;-14.22;62.85;98959.06;1728683;82;21236;-69
2021/01/16 05:40:17;;;;;;;12.18;5.97;;;;;;;-14.19;62.64;98964.14;1743265;81;21326;-69
2021/01/16 05:42:45;;;;;;;9.60;5.05;;;;;;;-14.19;62.51;98955.64;1702581;83;21320;-69
2021/01/16 05:45:15;;;;;;;11.90;5.58;;;;;;;-14.21;62.24;98958.23;1728352;81;21156;-70
2021/01/16 05:47:43;;;;;;;11.95;5.15;;;;;;;-14.33;62.32;98950.25;1678032;83;21175;-70
2021/01/16 05:50:12;;;;;;;12.10;5.50;;;;;;;-14.35;62.53;98949.86;1750730;81;21228;-70
2021/01/16 05:52:40;;;;;;;13.83;6.37;;;;;;;-14.35;62.54;98946.88;1730792;83;21633;-69
2021/01/16 05:55:08;;;;;;;11.55;5.25;;;;;;;-14.32;62.58;98944.33;1747704;81;21721;-70
2021/01/16 05:57:41;;;;;;;10.20;4.95;;;;;;;-14.29;62.39;98947.26;1719805;82;21187;-69
2021/01/16 06:00:11;;;;;;;11.33;5.37;;;;;;;-14.21;62.60;98952.28;1737541;81;21167;-69
2021/01/16 06:02:38;;;;;;;10.00;5.10;;;;;;;-14.16;62.41;98953.92;1699576;83;21289;-70
2021/01/16 06:05:08;;;;;;;11.10;5.20;;;;;;;-14.14;62.19;98965.35;1720597;81;21204;-70
2021/01/16 06:07:37;;;;;;;11.45;5.72;;;;;;;-14.13;62.39;98956.89;1723953;81;21176;-70
2021/01/16 06:10:14;;;;;;;9.98;5.17;;;;;;;-14.03;62.47;98965.27;1725466;83;21320;-70
2021/01/16 06:12:42;;;;;;;8.85;4.53;;;;;;;-13.94;62.01;98971.11;1709884;81;21738;-70
2021/01/16 06:15:15;;;;;;;12.65;5.35;;;;;;;-13.89;62.24;98983.80;1726815;83;21183;-70
2021/01/16 06:17:49;;;;;;;9.23;4.80;;;;;;;-13.79;61.93;98985.82;1741905;81;21164;-70
2021/01/16 06:20:21;;;;;;;14.53;6.20;;;;;;;-13.87;60.87;98988.00;1750052;81;21727;-70
2021/01/16 06:22:49;;;;;;;11.28;5.75;;;;;;;-13.96;61.08;98989.34;1725397;83;21171;-70
2021/01/16 06:25:22;;;;;;;11.53;5.95;;;;;;;-13.90;61.54;98998.62;1730139;81;21132;-70
2021/01/16 06:27:50;;;;;;;14.40;6.28;;;;;;;-13.79;61.47;98997.27;1728909;83;21190;-70
2021/01/16 06:30:20;;;;;;;13.70;6.15;;;;;;;-13.73;61.20;98995.92;1754101;81;21753;-70
2021/01/16 06:32:53;;;;;;;15.90;6.78;;;;;;;-13.66;61.22;98991.64;1737286;81;21228;-70
2021/01/16 06:35:21;;;;;;;14.03;6.75;;;;;;;-13.62;60.98;98999.20;1723569;83;21308;-70
2021/01/16 06:37:50;;;;;;;14.70;7.53;;;;;;;-13.55;60.66;99003.82;1750064;81;21210;-70
2021/01/16 06:40:33;;;;;;;10.50;5.80;;;;;;;-13.50;60.27;99015.64;1753964;81;21187;-70
2021/01/16 06:43:01;;;;;;;12.37;5.62;;;;;;;-13.31;59.97;99006.55;1733643;83;21182;-70
2021/01/16 06:45:30;;;;;;;14.28;6.78;;;;;;;-12.72;59.24;99011.33;1706787;83;21322;-69
2021/01/16 06:47:59;;;;;;;15.85;7.28;;;;;;;-11.83;58.10;99007.86;1721745;83;21162;-69
2021/01/16 06:50:28;;;;;;;12.23;6.10;;;;;;;-10.87;53.98;98998.00;1702696;83;21364;-69
2021/01/16 06:52:57;;;;;;;15.45;5.90;;;;;;;-10.05;51.78;99009.81;1737171;81;21168;-70
2021/01/16 06:55:25;;;;;;;16.20;7.30;;;;;;;-9.26;49.88;99018.09;1741076;81;21615;-71
2021/01/16 06:57:55;;;;;;;14.20;7.10;;;;;;;-8.37;47.67;99013.45;1674012;83;21560;-71
2021/01/16 07:00:24;;;;;;;13.08;6.42;;;;;;;-7.68;44.62;99010.01;1679213;84;21187;-71
2021/01/16 07:02:52;;;;;;;16.93;7.72;;;;;;;-7.13;43.14;99013.71;1716177;83;21204;-71
2021/01/16 07:05:21;;;;;;;14.83;7.55;;;;;;;-6.53;42.89;99007.23;1760470;81;21196;-71
2021/01/16 07:07:52;;;;;;;11.53;6.25;;;;;;;-5.89;40.04;99006.90;1763482;81;21191;-71
2021/01/16 07:10:28;;;;;;;11.53;6.53;;;;;;;-5.47;38.93;99021.52;1723549;83;21152;-72
2021/01/16 07:12:53;;;;;;;12.47;6.78;;;;;;;-4.81;37.76;99017.87;1720143;81;21144;-71
2021/01/16 07:15:21;;;;;;;13.18;6.90;;;;;;;-4.27;36.56;99025.32;1707758;83;21167;-71
2021/01/16 07:17:51;;;;;;;14.50;7.37;;;;;;;-3.72;35.34;99018.02;1723174;81;21148;-71
2021/01/16 07:20:19;;;;;;;15.63;7.92;;;;;;;-3.27;34.38;99026.14;1727285;83;21261;-70
2021/01/16 07:22:50;;;;;;;15.78;8.35;;;;;;;-2.81;33.79;99026.39;1752839;81;21183;-71
2021/01/16 07:25:19;;;;;;;15.70;8.70;;;;;;;-2.33;32.64;99023.89;1681820;83;21217;-69
2021/01/16 07:27:47;;;;;;;18.90;8.40;;;;;;;-2.11;32.09;99033.91;1715054;83;21193;-71
2021/01/16 07:30:16;;;;;;;15.23;8.30;;;;;;;-1.68;31.40;99031.52;1714413;82;21313;-71
2021/01/16 07:32:46;;;;;;;13.88;7.97;;;;;;;-1.24;30.67;99038.05;1728481;83;21172;-71
2021/01/16 07:35:25;;;;;;;18.02;9.83;;;;;;;-0.84;29.38;99036.17;1749538;81;21195;-71
2021/01/16 07:37:53;;;;;;;16.57;8.03;;;;;;;-0.65;29.20;99044.54;1733335;81;21179;-71
2021/01/16 07:40:27;;;;;;;15.30;9.33;;;;;;;-0.61;27.32;99040.00;1758973;81;21164;-71
2021/01/16 07:43:04;;;;;;;16.45;9.40;;;;;;;-0.80;28.47;99039.80;1726680;83;21211;-71
2021/01/16 07:45:34;;;;;;;14.85;8.20;;;;;;;-0.49;27.82;99035.81;1737000;81;21163;-70
2021/01/16 07:48:05;;;;;;;13.55;8.73;;;;;;;-0.23;27.41;99037.62;1733231;81;21198;-72
2021/01/16 07:50:36;;;;;;;16.52;8.65;;;;;;;0.33;26.98;99039.34;1737382;81;21309;-69
2021/01/16 07:53:07;;;;;;;17.73;8.85;;;;;;;0.82;26.00;99049.14;1739753;81;21176;-71
2021/01/16 07:55:41;;;;;;;13.78;8.20;;;;;;;1.16;25.57;99043.83;1755637;81;21327;-71
2021/01/16 07:58:15;;;;;;;14.35;8.83;;;;;;;1.32;24.95;99052.72;1734321;83;21183;-71
2021/01/16 08:00:44;;;;;;;;;;;;;;;1.38;24.62;99053.25;1751798;81;21151;-72
2021/01/16 08:03:41;;;;;;;13.95;8.00;;;;;;;1.65;24.79;99053.12;1740227;81;20139;-72
2021/01/16 08:06:42;;;;;;;15.72;8.70;;;;;;;1.73;23.12;99047.72;1729077;83;21233;-71
2021/01/16 08:09:19;;;;;;;15.10;8.70;;;;;;;0.82;23.54;99040.03;1756580;81;21172;-72
2021/01/16 08:11:51;;;;;;;13.90;7.92;;;;;;;0.31;24.05;99047.23;1701345;83;21214;-71
2021/01/16 08:14:22;;;;;;;14.95;9.40;;;;;;;-0.33;23.93;99061.23;1756784;81;21179;-71
2021/01/16 08:17:00;;;;;;;15.15;8.93;;;;;;;-0.72;25.32;99066.61;1748644;81;21140;-69
2021/01/16 08:20:02;;;;;;;16.23;9.63;;;;;;;-0.74;25.37;99067.16;1703685;83;21150;-72
2021/01/16 08:22:41;;;;;;;17.02;9.48;;;;;;;-1.12;25.53;99053.39;1761074;81;21190;-71
2021/01/16 08:25:11;;;;;;;15.83;9.58;;;;;;;-0.87;25.68;99063.63;1735688;83;21222;-71
2021/01/16 08:27:42;;;;;;;15.48;9.28;;;;;;;-0.43;25.40;99063.56;1761136;81;21322;-71
2021/01/16 08:30:20;;;;;;;15.58;9.20;;;;;;;0.12;25.43;99052.78;1722486;83;21179;-70
2021/01/16 08:33:12;;;;;;;15.20;9.00;;;;;;;0.57;24.22;99057.27;1756041;81;21148;-71
2021/01/16 08:35:44;;;;;;;15.45;8.65;;;;;;;0.33;23.39;99054.95;1756160;81;21164;-71
2021/01/16 08:38:20;;;;;;;14.50;8.30;;;;;;;0.10;23.96;99062.92;1728410;83;21301;-71
2021/01/16 08:41:04;;;;;;;14.23;8.13;;;;;;;0.18;23.75;99060.19;1733768;81;21786;-72
2021/01/16 08:43:42;;;;;;;14.58;8.70;;;;;;;0.29;23.98;99063.89;1750803;81;21212;-71
2021/01/16 08:46:17;;;;;;;15.83;8.68;;;;;;;0.91;23.86;99055.04;1725527;82;21167;-71
2021/01/16 08:49:05;;;;;;;13.45;8.13;;;;;;;1.42;23.18;99049.04;1756038;81;21195;-71
2021/01/16 08:51:42;;;;;;;12.07;8.28;;;;;;;1.78;22.98;99039.59;1699344;83;21127;-72
2021/01/16 08:54:16;;;;;;;14.40;8.83;;;;;;;1.62;21.84;99044.21;1737032;81;21159;-71
2021/01/16 08:56:51;;;;;;;15.23;9.30;;;;;;;1.30;22.50;99044.18;1742321;81;21309;-72
2021/01/16 08:59:27;;;;;;;14.28;8.90;;;;;;;1.36;22.42;99045.53;1761704;81;21148;-70
2021/01/16 09:02:11;;;;;;;12.53;8.20;;;;;;;1.35;22.24;99059.03;1728041;83;21175;-71
2021/01/16 09:04:44;;;;;;;14.28;8.90;;;;;;;1.24;22.73;99063.31;1732227;81;21168;-71
2021/01/16 09:07:22;;;;;;;14.65;8.00;;;;;;;1.29;22.77;99062.06;1725055;83;21171;-71
2021/01/16 09:09:58;;;;;;;13.68;7.62;;;;;;;1.55;22.20;99048.55;1746722;81;21312;-70
2021/01/16 09:12:37;;;;;;;12.23;7.92;;;;;;;1.02;21.91;99048.30;1741426;81;21318;-71
2021/01/16 09:15:25;;;;;;;12.37;7.42;;;;;;;0.71;22.70;99047.27;1763008;81;21167;-71
2021/01/16 09:18:19;;;;;;;14.13;7.90;;;;;;;1.23;22.31;99054.64;1803376;78;23142;-72
2021/01/16 09:20:57;;;;;;;12.63;8.25;;;;;;;1.60;21.79;99050.83;1733671;80;21612;-70
2021/01/16 09:23:32;;;;;;;15.95;8.40;;;;;;;2.04;21.44;99052.55;1763457;80;21698;-71
2021/01/16 09:26:09;;;;;;;13.78;8.08;;;;;;;2.04;22.03;99052.55;1755973;81;21174;-71
2021/01/16 09:28:57;;;;;;;12.73;8.50;;;;;;;2.35;21.72;99053.80;1779680;80;21175;-71
2021/01/16 09:31:39;;;;;;;14.23;8.13;;;;;;;2.53;21.02;99051.16;1752195;81;21190;-71
2021/01/16 09:34:10;;;;;;;13.62;8.28;;;;;;;2.51;21.25;99045.22;1781730;80;21164;-70
2021/01/16 09:37:00;;;;;;;14.75;8.30;;;;;;;2.57;21.50;99045.72;1732744;81;21182;-70
2021/01/16 09:39:27;;;;;;;12.63;7.92;;;;;;;2.19;20.71;99043.65;1787599;80;21690;-70
2021/01/16 09:42:04;;;;;;;13.95;8.65;;;;;;;1.21;21.07;99049.19;1792989;80;21160;-72
2021/01/16 09:44:49;;;;;;;13.30;8.05;;;;;;;0.50;21.90;99049.48;1779735;80;21176;-71
2021/01/16 09:47:32;;;;;;;13.70;7.25;;;;;;;0.14;22.49;99055.30;1750057;81;21141;-71
2021/01/16 09:50:09;;;;;;;13.60;8.08;;;;;;;0.47;22.16;99056.66;1742463;81;21297;-71
2021/01/16 09:52:46;;;;;;;13.15;7.65;;;;;;;0.47;22.91;99056.20;1765528;80;21285;-71
2021/01/16 09:55:19;;;;;;;11.38;6.97;;;;;;;0.70;23.14;99062.50;1759254;81;21590;-71
2021/01/16 09:57:47;;;;;;;13.55;7.65;;;;;;;0.45;22.97;99059.38;1748626;81;21160;-72
2021/01/16 10:00:21;;;;;;;11.03;7.20;;;;;;;0.67;24.00;99057.97;1788062;80;21168;-72
2021/01/16 10:02:48;;;;;;;12.98;7.17;;;;;;;1.23;22.61;99051.22;1755905;81;21210;-70
2021/01/16 10:05:27;;;;;;;15.18;8.10;;;;;;;1.31;22.03;99047.16;1725482;80;21695;-70
2021/01/16 10:07:55;;;;;;;16.52;9.18;;;;;;;1.00;21.93;99045.80;1744767;81;21167;-71
2021/01/16 10:10:23;;;;;;;12.73;7.97;;;;;;;1.01;22.56;99034.90;1766078;80;21176;-71
2021/01/16 10:13:01;;;;;;;16.10;8.60;;;;;;;1.18;22.49;99044.17;1754368;81;21638;-71
2021/01/16 10:15:33;;;;;;;15.00;9.25;;;;;;;1.85;22.34;99041.28;1752194;81;21216;-71
2021/01/16 10:18:01;;;;;;;11.93;7.95;;;;;;;2.24;21.23;99044.61;1785145;80;21615;-70
2021/01/16 10:20:34;;;;;;;14.40;7.70;;;;;;;2.13;20.64;99039.70;1748454;81;21191;-71
2021/01/16 10:23:07;;;;;;;13.62;7.90;;;;;;;1.88;20.97;99041.08;1721055;81;21179;-72
2021/01/16 10:25:41;;;;;;;12.40;7.67;;;;;;;1.66;21.05;99036.53;1762234;81;21171;-69
2021/01/16 10:28:12;;;;;;;12.18;6.95;;;;;;;1.57;20.90;99039.30;1758018;81;21595;-69
2021/01/16 10:31:00;;;;;;;12.88;7.80;;;;;;;1.47;21.04;99046.10;1771235;80;21580;-70
2021/01/16 10:33:43;;;;;;;12.55;7.95;;;;;;;1.15;21.48;99042.63;1790437;80;21608;-70
2021/01/16 10:36:16;;;;;;;12.35;7.80;;;;;;;1.19;21.81;99040.65;1759609;81;21298;-71
2021/01/16 10:38:52;;;;;;;12.13;6.25;;;;;;;1.16;21.80;99033.41;1733224;81;21606;-72
2021/01/16 10:41:23;;;;;;;11.43;7.78;;;;;;;1.05;21.77;99028.54;1745804;81;21167;-71
2021/01/16 10:44:05;;;;;;;12.18;6.83;;;;;;;0.67;21.80;99026.73;1735399;81;21143;-70
2021/01/16 10:46:46;;;;;;;11.60;7.28;;;;;;;0.16;22.27;99030.85;1776893;80;21349;-71
2021/01/16 10:49:26;;;;;;;12.88;7.17;;;;;;;-0.23;23.09;99033.73;1784278;80;21132;-72
2021/01/16 10:52:02;;;;;;;13.75;8.30;;;;;;;-0.26;23.20;99030.52;1762861;80;21141;-70
2021/01/16 10:54:26;;;;;;;13.37;7.90;;;;;;;-0.52;23.82;99037.31;1784414;80;21129;-71
2021/01/16 10:57:01;;;;;;;13.83;7.97;;;;;;;-0.59;23.66;99035.55;1770766;80;21858;-71
2021/01/16 10:59:31;;;;;;;14.13;8.10;;;;;;;-0.87;24.03;99034.60;1775617;80;21227;-70
2021/01/16 11:02:10;;;;;;;14.78;8.48;;;;;;;-0.76;23.84;99031.84;1775068;80;21155;-70
2021/01/16 11:04:44;;;;;;;13.25;7.80;;;;;;;-0.82;24.20;99023.95;1760849;80;21604;-71
2021/01/16 11:07:30;;;;;;;11.93;7.47;;;;;;;-0.86;24.15;99025.04;1742602;80;21171;-72
2021/01/16 11:10:07;;;;;;;11.68;6.72;;;;;;;-1.17;24.57;99029.47;1716790;82;21183;-71
2021/01/16 11:12:35;;;;;;;16.50;8.68;;;;;;;-2.06;25.05;99034.03;1748931;81;21172;-71
2021/01/16 11:15:25;;;;;;;15.32;8.15;;;;;;;-3.44;26.60;99035.59;1762803;81;21169;-71
2021/01/16 11:18:35;;;;;;;15.50;8.20;;;;;;;-4.12;28.35;99039.27;1795514;78;23028;-71
2021/01/16 11:21:06;;;;;;;14.13;8.08;;;;;;;-3.82;28.81;99033.11;1796225;80;21136;-70
2021/01/16 11:23:49;;;;;;;13.53;7.53;;;;;;;-3.30;28.65;99025.02;1720167;83;21634;-72
2021/01/16 11:26:17;;;;;;;13.03;7.47;;;;;;;-3.41;28.53;99031.55;1729493;83;21160;-71
2021/01/16 11:28:56;;;;;;;15.15;8.63;;;;;;;-3.54;29.27;99034.36;1704678;83;21571;-71
2021/01/16 11:31:34;;;;;;;16.87;8.53;;;;;;;-3.71;29.33;99029.55;1728992;83;21164;-70
2021/01/16 11:34:17;;;;;;;14.65;8.33;;;;;;;-4.26;29.32;99036.47;1731691;83;21330;-71
2021/01/16 11:36:57;;;;;;;14.70;7.75;;;;;;;-5.31;30.38;99034.59;1692319;83;21285;-72
2021/01/16 11:39:49;;;;;;;13.83;8.08;;;;;;;-5.72;31.30;99035.41;1677920;83;21169;-71
2021/01/16 11:42:18;;;;;;;14.60;7.45;;;;;;;-5.68;32.50;99036.96;1743852;81;21583;-72
2021/01/16 11:44:53;;;;;;;16.27;7.83;;;;;;;-5.23;32.15;99038.17;1722127;82;21209;-72
2021/01/16 11:47:21;;;;;;;10.82;6.70;;;;;;;-4.92;31.52;99034.67;1760979;81;21184;-71
2021/01/16 11:49:49;;;;;;;17.65;7.87;;;;;;;-5.09;31.23;99027.66;1763160;81;21168;-70